createdAt,value
2018-12-20T00:00:43.876Z,8.00
2018-12-20T00:03:12.298Z,8.00
2018-12-20T00:05:40.516Z,8.10
2018-12-20T00:08:08.835Z,8.00
2018-12-20T00:10:37.137Z,8.00
2018-12-20T00:13:05.536Z,8.00
2018-12-20T00:15:33.971Z,8.00
2018-12-20T00:18:02.304Z,8.10
2018-12-20T00:20:30.684Z,8.10
2018-12-20T00:22:58.901Z,8.10
2018-12-20T00:25:27.229Z,8.10
2018-12-20T00:27:55.536Z,8.00
2018-12-20T00:30:23.876Z,8.00
2018-12-20T00:32:52.227Z,8.00
2018-12-20T00:35:20.532Z,8.10
2018-12-20T00:37:48.867Z,8.20
2018-12-20T00:40:17.236Z,8.20
2018-12-20T00:42:45.615Z,8.10
2018-12-20T00:45:13.888Z,8.10
2018-12-20T00:47:42.095Z,8.00
2018-12-20T00:50:10.548Z,8.10
2018-12-20T00:52:38.829Z,8.10
2018-12-20T00:55:07.429Z,8.10
2018-12-20T00:57:35.794Z,8.10
2018-12-20T01:00:07.494Z,8.10
2018-12-20T01:02:35.787Z,8.10
2018-12-20T01:05:04.326Z,8.00
2018-12-20T01:07:32.603Z,8.00
2018-12-20T01:10:01.061Z,8.10
2018-12-20T01:12:29.506Z,8.30
2018-12-20T01:14:57.723Z,8.30
2018-12-20T01:17:30.156Z,8.30
2018-12-20T01:19:58.616Z,8.20
2018-12-20T01:22:27.130Z,8.20
2018-12-20T01:24:55.442Z,8.20
2018-12-20T01:27:23.772Z,8.10
2018-12-20T01:29:52.062Z,8.10
2018-12-20T01:32:20.477Z,8.10
2018-12-20T01:34:48.872Z,8.30
2018-12-20T01:37:17.164Z,8.30
2018-12-20T01:39:45.538Z,8.30
2018-12-20T01:42:13.835Z,8.20
2018-12-20T01:44:42.179Z,8.20
2018-12-20T01:47:10.408Z,8.10
2018-12-20T01:49:38.709Z,8.20
2018-12-20T01:52:06.679Z,8.20
2018-12-20T01:54:34.994Z,8.20
2018-12-20T01:57:03.274Z,8.20
2018-12-20T01:59:31.684Z,8.20
2018-12-20T02:01:59.975Z,8.20
2018-12-20T02:04:28.390Z,8.20
2018-12-20T02:06:56.939Z,8.20
2018-12-20T02:09:25.478Z,8.20
2018-12-20T02:11:53.811Z,8.10
2018-12-20T02:14:22.027Z,8.20
2018-12-20T02:16:50.303Z,8.10
2018-12-20T02:19:18.555Z,8.10
2018-12-20T02:21:46.997Z,8.10
2018-12-20T02:24:15.570Z,8.10
2018-12-20T02:26:43.855Z,8.10
2018-12-20T02:29:12.077Z,8.10
2018-12-20T02:31:40.662Z,8.00
2018-12-20T02:34:09.033Z,8.10
2018-12-20T02:36:37.436Z,8.10
2018-12-20T02:39:08.017Z,8.10
2018-12-20T02:41:36.455Z,8.10
2018-12-20T02:44:04.945Z,8.10
2018-12-20T02:46:33.379Z,8.10
2018-12-20T02:49:01.834Z,8.20
2018-12-20T02:51:30.155Z,8.10
2018-12-20T02:53:58.549Z,8.10
2018-12-20T02:56:26.953Z,8.10
2018-12-20T02:58:55.351Z,8.10
2018-12-20T03:01:23.672Z,8.10
2018-12-20T03:03:51.931Z,8.10
2018-12-20T03:06:20.325Z,8.10
2018-12-20T03:08:48.661Z,8.10
2018-12-20T03:11:16.945Z,8.10
2018-12-20T03:13:45.176Z,8.20
2018-12-20T03:16:13.464Z,8.10
2018-12-20T03:18:41.717Z,8.20
2018-12-20T03:21:10.066Z,8.10
2018-12-20T03:23:38.366Z,8.10
2018-12-20T03:26:06.633Z,8.20
2018-12-20T03:28:35.096Z,8.20
2018-12-20T03:31:03.456Z,8.30
2018-12-20T03:33:31.665Z,8.20
2018-12-20T03:36:00.005Z,8.20
2018-12-20T03:38:28.447Z,8.20
2018-12-20T03:40:56.785Z,8.30
2018-12-20T03:43:25.235Z,8.20
2018-12-20T03:45:53.672Z,8.20
2018-12-20T03:48:21.959Z,8.20
2018-12-20T03:50:50.334Z,8.20
2018-12-20T03:53:18.725Z,8.20
2018-12-20T03:55:47.230Z,8.30
2018-12-20T03:58:15.617Z,8.20
2018-12-20T04:00:44.107Z,8.20
2018-12-20T04:03:12.440Z,8.30
2018-12-20T04:05:40.665Z,8.20
2018-12-20T04:08:08.991Z,8.20
2018-12-20T04:10:37.369Z,8.20
2018-12-20T04:13:05.696Z,8.10
2018-12-20T04:15:37.897Z,8.20
2018-12-20T04:18:04.139Z,8.20
2018-12-20T04:20:32.833Z,8.20
2018-12-20T04:23:01.148Z,8.10
2018-12-20T04:25:29.368Z,8.10
2018-12-20T04:27:57.619Z,8.10
2018-12-20T04:30:25.926Z,8.00
2018-12-20T04:32:54.472Z,8.00
2018-12-20T04:35:22.810Z,8.00
2018-12-20T04:37:51.110Z,8.00
2018-12-20T04:40:19.635Z,8.00
2018-12-20T04:42:48.044Z,7.90
2018-12-20T04:45:16.383Z,7.90
2018-12-20T04:47:44.890Z,8.00
2018-12-20T04:50:13.286Z,7.90
2018-12-20T04:52:41.501Z,7.80
2018-12-20T04:55:09.941Z,7.90
2018-12-20T04:57:38.467Z,7.90
2018-12-20T05:00:07.272Z,7.80
2018-12-20T05:02:35.519Z,7.80
2018-12-20T05:05:03.959Z,7.80
2018-12-20T05:07:32.272Z,7.80
2018-12-20T05:10:00.737Z,7.80
2018-12-20T05:12:28.976Z,7.80
2018-12-20T05:14:57.375Z,7.80
2018-12-20T05:17:25.706Z,7.80
2018-12-20T05:19:54.054Z,7.80
2018-12-20T05:22:22.617Z,7.70
2018-12-20T05:24:50.953Z,7.70
2018-12-20T05:27:19.421Z,7.70
2018-12-20T05:29:47.781Z,7.70
2018-12-20T05:32:15.997Z,7.70
2018-12-20T05:34:44.297Z,7.70
2018-12-20T05:37:12.867Z,7.60
2018-12-20T05:39:41.196Z,7.60
2018-12-20T05:42:09.769Z,7.70
2018-12-20T05:44:38.894Z,7.60
2018-12-20T05:47:07.185Z,7.60
2018-12-20T05:49:35.398Z,7.70
2018-12-20T05:52:03.741Z,7.70
2018-12-20T05:54:32.023Z,7.70
2018-12-20T05:57:00.250Z,7.70
2018-12-20T05:59:28.494Z,7.60
2018-12-20T06:01:56.846Z,7.60
2018-12-20T06:04:25.166Z,7.60
2018-12-20T06:06:53.461Z,7.70
2018-12-20T06:09:22.880Z,7.70
2018-12-20T06:11:51.417Z,7.70
2018-12-20T06:14:19.767Z,7.60
2018-12-20T06:16:48.123Z,7.60
2018-12-20T06:19:16.556Z,7.60
2018-12-20T06:21:44.841Z,7.70
2018-12-20T06:24:13.050Z,7.70
2018-12-20T06:26:41.292Z,7.70
2018-12-20T06:29:09.500Z,7.70
2018-12-20T06:31:37.732Z,7.70
2018-12-20T06:34:06.645Z,7.60
2018-12-20T06:36:34.889Z,7.60
2018-12-20T06:39:04.699Z,7.70
2018-12-20T06:41:32.930Z,7.70
2018-12-20T06:44:07.099Z,7.70
2018-12-20T06:46:31.364Z,7.60
2018-12-20T06:48:59.590Z,7.60
2018-12-20T06:51:27.800Z,7.60
2018-12-20T06:53:56.087Z,7.60
2018-12-20T06:56:24.300Z,7.50
2018-12-20T06:58:52.508Z,7.60
2018-12-20T07:01:20.720Z,7.60
2018-12-20T07:03:48.920Z,7.60
2018-12-20T07:06:17.140Z,7.50
2018-12-20T07:08:45.356Z,7.50
2018-12-20T07:11:13.563Z,7.50
2018-12-20T07:13:41.859Z,7.50
2018-12-20T07:16:10.082Z,7.50
2018-12-20T07:18:38.285Z,7.50
2018-12-20T07:21:06.521Z,7.40
2018-12-20T07:23:34.733Z,7.40
2018-12-20T07:26:02.944Z,7.40
2018-12-20T07:28:31.144Z,7.50
2018-12-20T07:30:59.353Z,7.40
2018-12-20T07:33:27.548Z,7.40
2018-12-20T07:35:55.768Z,7.40
2018-12-20T07:38:23.979Z,7.40
2018-12-20T07:40:52.201Z,7.50
2018-12-20T07:43:20.403Z,7.50
2018-12-20T07:45:48.620Z,7.50
2018-12-20T07:48:16.819Z,7.60
2018-12-20T07:50:45.028Z,7.60
2018-12-20T07:53:13.223Z,7.50
2018-12-20T07:55:41.441Z,7.60
2018-12-20T07:58:09.645Z,7.60
2018-12-20T08:00:38.000Z,7.60
2018-12-20T08:03:06.212Z,7.70
2018-12-20T08:05:34.403Z,7.70
2018-12-20T08:08:02.625Z,7.60
2018-12-20T08:10:30.846Z,7.60
2018-12-20T08:12:59.136Z,7.60
2018-12-20T08:15:27.351Z,7.60
2018-12-20T08:17:55.565Z,7.70
2018-12-20T08:20:23.767Z,7.80
2018-12-20T08:22:51.984Z,7.80
2018-12-20T08:25:20.174Z,7.70
2018-12-20T08:27:48.388Z,7.80
2018-12-20T08:30:16.600Z,7.80
2018-12-20T08:32:44.817Z,7.90
2018-12-20T08:35:13.117Z,7.90
2018-12-20T08:37:41.335Z,7.90
2018-12-20T08:40:10.518Z,8.00
2018-12-20T08:42:38.806Z,7.90
2018-12-20T08:45:07.188Z,8.00
2018-12-20T08:47:35.396Z,8.00
2018-12-20T08:50:04.012Z,8.10
2018-12-20T08:52:32.222Z,8.10
2018-12-20T08:55:00.428Z,8.10
2018-12-20T08:57:28.644Z,8.10
2018-12-20T08:59:56.859Z,8.10
2018-12-20T09:02:25.071Z,8.20
2018-12-20T09:04:53.262Z,8.30
2018-12-20T09:07:21.492Z,8.30
2018-12-20T09:09:49.704Z,8.30
2018-12-20T09:12:17.927Z,8.30
2018-12-20T09:14:46.230Z,8.40
2018-12-20T09:17:14.436Z,8.40
2018-12-20T09:19:42.639Z,8.50
2018-12-20T09:22:10.843Z,8.70
2018-12-20T09:24:39.043Z,8.80
2018-12-20T09:27:07.261Z,8.90
2018-12-20T09:29:35.461Z,9.00
2018-12-20T09:32:03.797Z,9.20
2018-12-20T09:34:32.089Z,9.40
2018-12-20T09:37:00.328Z,9.60
2018-12-20T09:39:28.535Z,9.80
2018-12-20T09:41:56.845Z,9.90
2018-12-20T09:44:25.145Z,9.80
2018-12-20T09:46:57.600Z,9.70
2018-12-20T09:49:25.805Z,9.60
2018-12-20T09:51:54.011Z,9.50
2018-12-20T09:54:22.221Z,9.30
2018-12-20T09:56:50.432Z,9.30
2018-12-20T09:59:18.634Z,9.40
2018-12-20T10:01:46.860Z,9.20
2018-12-20T10:04:15.055Z,9.20
2018-12-20T10:06:43.275Z,9.20
2018-12-20T10:09:11.467Z,9.10
2018-12-20T10:11:39.759Z,9.10
2018-12-20T10:14:08.144Z,9.10
2018-12-20T10:16:36.360Z,9.20
2018-12-20T10:19:04.584Z,9.20
2018-12-20T10:21:32.793Z,9.20
2018-12-20T10:24:01.004Z,9.10
2018-12-20T10:26:29.343Z,9.20
2018-12-20T10:28:57.656Z,9.30
2018-12-20T10:31:25.878Z,9.40
2018-12-20T10:33:54.105Z,9.30
2018-12-20T10:36:22.315Z,9.40
2018-12-20T10:38:50.535Z,9.40
2018-12-20T10:41:18.747Z,9.40
2018-12-20T10:43:46.971Z,9.30
2018-12-20T10:46:15.164Z,9.40
2018-12-20T10:48:43.395Z,9.40
2018-12-20T10:51:11.579Z,9.50
2018-12-20T10:53:39.802Z,9.50
2018-12-20T10:56:08.029Z,9.50
2018-12-20T10:58:36.324Z,9.50
2018-12-20T11:01:09.937Z,9.50
2018-12-20T11:03:43.589Z,9.40
2018-12-20T11:06:17.300Z,9.50
2018-12-20T11:08:51.140Z,9.50
2018-12-20T11:11:21.736Z,9.60
2018-12-20T11:13:50.280Z,9.70
2018-12-20T11:16:18.480Z,9.70
2018-12-20T11:18:46.689Z,9.70
2018-12-20T11:21:14.980Z,9.70
2018-12-20T11:23:43.200Z,9.80
2018-12-20T11:26:11.399Z,9.80
2018-12-20T11:28:39.618Z,9.80
2018-12-20T11:31:07.836Z,9.80
2018-12-20T11:33:36.039Z,9.90
2018-12-20T11:36:04.344Z,9.80
2018-12-20T11:38:32.563Z,9.70
2018-12-20T11:41:00.764Z,9.70
2018-12-20T11:43:28.983Z,9.70
2018-12-20T11:45:57.185Z,9.60
2018-12-20T11:48:25.395Z,9.60
2018-12-20T11:50:53.608Z,9.60
2018-12-20T11:53:21.835Z,9.50
2018-12-20T11:55:50.044Z,9.60
2018-12-20T11:58:18.272Z,9.50
2018-12-20T12:00:46.467Z,9.60
2018-12-20T12:03:14.675Z,9.50
2018-12-20T12:05:42.920Z,9.60
2018-12-20T12:08:11.133Z,9.60
2018-12-20T12:10:39.368Z,9.60
2018-12-20T12:13:07.585Z,9.60
2018-12-20T12:15:35.800Z,9.50
2018-12-20T12:18:04.108Z,9.50
2018-12-20T12:20:32.428Z,9.50
2018-12-20T12:23:00.732Z,9.40
2018-12-20T12:25:28.923Z,9.50
2018-12-20T12:27:57.169Z,9.50
2018-12-20T12:30:25.484Z,9.50
2018-12-20T12:32:53.724Z,9.50
2018-12-20T12:35:21.959Z,9.60
2018-12-20T12:37:50.208Z,9.60
2018-12-20T12:40:18.443Z,9.60
2018-12-20T12:42:46.673Z,9.50
2018-12-20T12:45:14.894Z,9.50
2018-12-20T12:47:48.656Z,9.50
2018-12-20T12:50:16.964Z,9.40
2018-12-20T12:52:45.210Z,9.40
2018-12-20T12:55:13.460Z,9.40
2018-12-20T12:57:41.690Z,9.40
2018-12-20T13:00:10.152Z,9.30
2018-12-20T13:02:38.680Z,9.30
2018-12-20T13:05:07.131Z,9.20
2018-12-20T13:07:35.552Z,9.20
2018-12-20T13:10:04.207Z,9.30
2018-12-20T13:12:32.438Z,9.20
2018-12-20T13:15:00.674Z,9.30
2018-12-20T13:17:28.920Z,9.30
2018-12-20T13:19:57.147Z,9.30
2018-12-20T13:22:25.365Z,9.20
2018-12-20T13:24:53.599Z,9.10
2018-12-20T13:27:21.999Z,9.20
2018-12-20T13:29:50.242Z,9.10
2018-12-20T13:32:18.462Z,9.20
2018-12-20T13:34:46.703Z,9.00
2018-12-20T13:37:16.059Z,9.10
2018-12-20T13:39:44.554Z,9.00
2018-12-20T13:42:12.775Z,9.10
2018-12-20T13:44:41.049Z,9.10
2018-12-20T13:47:09.287Z,9.00
2018-12-20T13:49:37.515Z,9.10
2018-12-20T13:52:05.748Z,9.10
2018-12-20T13:54:33.980Z,9.10
2018-12-20T13:57:02.220Z,9.10
2018-12-20T13:59:30.467Z,9.10
2018-12-20T14:01:58.692Z,9.00
2018-12-20T14:04:27.028Z,9.10
2018-12-20T14:06:55.351Z,9.00
2018-12-20T14:09:23.585Z,9.00
2018-12-20T14:11:51.897Z,8.90
2018-12-20T14:14:20.155Z,8.80
2018-12-20T14:16:48.384Z,8.70
2018-12-20T14:19:16.615Z,8.70
2018-12-20T14:21:44.835Z,8.60
2018-12-20T14:24:13.095Z,8.50
2018-12-20T14:26:41.399Z,8.50
2018-12-20T14:29:09.714Z,8.40
2018-12-20T14:31:37.996Z,8.30
2018-12-20T14:34:06.255Z,8.30
2018-12-20T14:36:34.480Z,8.30
2018-12-20T14:39:04.727Z,8.30
2018-12-20T14:41:32.948Z,8.40
2018-12-20T14:44:01.223Z,8.30
2018-12-20T14:46:29.447Z,8.30
2018-12-20T14:48:57.785Z,8.30
2018-12-20T14:51:26.010Z,8.30
2018-12-20T14:53:54.247Z,8.20
2018-12-20T14:56:22.467Z,8.10
2018-12-20T14:58:50.706Z,8.10
2018-12-20T15:01:19.044Z,8.00
2018-12-20T15:03:47.256Z,8.00
2018-12-20T15:06:15.503Z,7.90
2018-12-20T15:08:43.726Z,7.90
2018-12-20T15:11:12.794Z,7.90
2018-12-20T15:13:41.019Z,7.80
2018-12-20T15:16:09.260Z,7.80
2018-12-20T15:18:37.475Z,7.80
2018-12-20T15:21:05.709Z,7.80
2018-12-20T15:23:33.931Z,7.80
2018-12-20T15:26:02.160Z,7.90
2018-12-20T15:28:30.403Z,7.90
2018-12-20T15:30:58.634Z,7.80
2018-12-20T15:33:26.865Z,7.90
2018-12-20T15:35:55.123Z,7.80
2018-12-20T15:38:23.404Z,7.90
2018-12-20T15:40:51.635Z,7.80
2018-12-20T15:43:19.943Z,7.90
2018-12-20T15:45:48.167Z,7.90
2018-12-20T15:48:16.700Z,7.90
2018-12-20T15:50:44.956Z,7.80
2018-12-20T15:53:13.187Z,7.80
2018-12-20T15:55:41.428Z,7.80
2018-12-20T15:58:09.652Z,7.70
2018-12-20T16:00:37.902Z,7.70
2018-12-20T16:03:06.150Z,7.70
2018-12-20T16:05:34.379Z,7.70
2018-12-20T16:08:06.610Z,7.60
2018-12-20T16:10:35.371Z,7.50
2018-12-20T16:13:03.721Z,7.60
2018-12-20T16:15:32.043Z,7.50
2018-12-20T16:18:00.264Z,7.60
2018-12-20T16:20:28.538Z,7.60
2018-12-20T16:22:56.756Z,7.60
2018-12-20T16:25:25.210Z,7.70
2018-12-20T16:27:53.516Z,7.70
2018-12-20T16:30:21.936Z,7.70
2018-12-20T16:32:50.155Z,7.60
2018-12-20T16:35:18.400Z,7.60
2018-12-20T16:37:46.622Z,7.60
2018-12-20T16:40:14.846Z,7.60
2018-12-20T16:42:43.080Z,7.70
2018-12-20T16:45:11.312Z,7.70
2018-12-20T16:47:39.541Z,7.70
2018-12-20T16:50:09.340Z,7.70
2018-12-20T16:52:37.668Z,7.80
2018-12-20T16:55:07.128Z,7.80
2018-12-20T16:57:35.561Z,7.80
2018-12-20T17:00:04.477Z,7.90
2018-12-20T17:02:32.743Z,7.80
2018-12-20T17:05:00.989Z,7.70
2018-12-20T17:07:29.225Z,7.70
2018-12-20T17:09:57.495Z,7.80
2018-12-20T17:12:25.739Z,7.80
2018-12-20T17:14:54.080Z,7.80
2018-12-20T17:17:22.296Z,7.80
2018-12-20T17:19:50.620Z,7.70
2018-12-20T17:22:18.883Z,7.80
2018-12-20T17:24:47.127Z,7.90
2018-12-20T17:27:15.351Z,7.90
2018-12-20T17:29:44.076Z,7.90
2018-12-20T17:32:12.315Z,7.90
2018-12-20T17:34:40.628Z,7.90
2018-12-20T17:37:09.336Z,7.90
2018-12-20T17:39:37.897Z,7.90
2018-12-20T17:42:06.400Z,7.90
2018-12-20T17:44:34.654Z,7.80
2018-12-20T17:47:02.889Z,7.80
2018-12-20T17:49:31.126Z,7.80
2018-12-20T17:51:59.369Z,7.90
2018-12-20T17:54:27.590Z,7.90
2018-12-20T17:56:55.824Z,7.90
2018-12-20T17:59:24.061Z,7.90
2018-12-20T18:01:52.321Z,7.90
2018-12-20T18:04:20.553Z,7.80
2018-12-20T18:06:48.795Z,7.80
2018-12-20T18:09:17.092Z,7.80
2018-12-20T18:11:45.317Z,7.90
2018-12-20T18:14:13.557Z,7.90
2018-12-20T18:16:41.868Z,8.00
2018-12-20T18:19:12.288Z,8.10
2018-12-20T18:21:40.398Z,8.10
2018-12-20T18:24:08.710Z,8.10
2018-12-20T18:26:37.091Z,8.10
2018-12-20T18:29:05.602Z,8.10
2018-12-20T18:31:33.856Z,8.10
2018-12-20T18:34:02.105Z,8.10
2018-12-20T18:36:30.348Z,8.10
2018-12-20T18:38:58.616Z,8.10
2018-12-20T18:41:26.897Z,8.10
2018-12-20T18:43:55.180Z,8.20
2018-12-20T18:46:23.436Z,8.10
2018-12-20T18:48:51.658Z,8.20
2018-12-20T18:51:20.005Z,8.20
2018-12-20T18:53:48.250Z,8.10
2018-12-20T18:56:16.524Z,8.10
2018-12-20T18:58:44.762Z,8.10
2018-12-20T19:01:13.016Z,8.20
2018-12-20T19:03:41.257Z,8.30
2018-12-20T19:06:09.534Z,8.30
2018-12-20T19:08:38.008Z,8.20
2018-12-20T19:11:06.390Z,8.20
2018-12-20T19:13:34.968Z,8.20
2018-12-20T19:16:03.707Z,8.10
2018-12-20T19:18:31.929Z,8.10
2018-12-20T19:21:00.175Z,8.10
2018-12-20T19:23:28.460Z,8.00
2018-12-20T19:25:56.900Z,7.90
2018-12-20T19:28:25.157Z,7.90
2018-12-20T19:30:53.715Z,8.00
2018-12-20T19:33:22.023Z,8.10
2018-12-20T19:35:52.354Z,8.20
2018-12-20T19:38:20.952Z,8.10
2018-12-20T19:40:49.498Z,8.10
2018-12-20T19:43:17.777Z,8.10
2018-12-20T19:45:46.437Z,8.10
2018-12-20T19:48:14.918Z,8.10
2018-12-20T19:50:43.216Z,8.10
2018-12-20T19:53:11.523Z,8.00
2018-12-20T19:55:40.150Z,8.00
2018-12-20T19:58:08.628Z,8.10
2018-12-20T20:00:37.015Z,8.20
2018-12-20T20:03:05.500Z,8.20
2018-12-20T20:05:33.744Z,8.20
2018-12-20T20:08:02.044Z,8.20
2018-12-20T20:10:30.324Z,8.20
2018-12-20T20:12:58.571Z,8.20
2018-12-20T20:15:26.939Z,8.30
2018-12-20T20:17:55.193Z,8.40
2018-12-20T20:20:23.557Z,8.30
2018-12-20T20:22:51.809Z,8.30
2018-12-20T20:25:20.110Z,8.30
2018-12-20T20:27:48.366Z,8.20
2018-12-20T20:30:16.596Z,8.30
2018-12-20T20:32:44.829Z,8.20
2018-12-20T20:35:13.181Z,8.20
2018-12-20T20:37:41.412Z,8.20
2018-12-20T20:40:11.041Z,8.30
2018-12-20T20:42:39.474Z,8.30
2018-12-20T20:45:08.002Z,8.30
2018-12-20T20:47:36.234Z,8.20
2018-12-20T20:50:05.869Z,8.20
2018-12-20T20:52:34.197Z,8.20
2018-12-20T20:55:02.531Z,8.20
2018-12-20T20:57:31.194Z,8.20
2018-12-20T20:59:59.407Z,8.10
2018-12-20T21:02:27.657Z,8.10
2018-12-20T21:04:55.887Z,8.10
2018-12-20T21:07:24.135Z,8.10
2018-12-20T21:09:52.541Z,8.10
2018-12-20T21:12:22.933Z,8.10
2018-12-20T21:14:52.523Z,8.10
2018-12-20T21:17:21.132Z,8.00
2018-12-20T21:19:50.381Z,8.00
2018-12-20T21:22:19.211Z,8.20
2018-12-20T21:24:47.690Z,8.10
2018-12-20T21:27:16.265Z,8.10
2018-12-20T21:29:44.504Z,8.10
2018-12-20T21:32:12.789Z,8.10
2018-12-20T21:34:41.645Z,8.30
2018-12-20T21:37:10.070Z,8.20
2018-12-20T21:39:38.321Z,8.20
2018-12-20T21:42:06.560Z,8.30
2018-12-20T21:44:34.944Z,8.30
2018-12-20T21:47:03.184Z,8.30
2018-12-20T21:49:31.567Z,8.30
2018-12-20T21:52:01.571Z,8.40
2018-12-20T21:54:30.409Z,8.40
2018-12-20T21:56:58.636Z,8.40
2018-12-20T21:59:26.914Z,8.40
2018-12-20T22:01:55.156Z,8.40
2018-12-20T22:04:23.381Z,8.40
2018-12-20T22:06:51.623Z,8.40
2018-12-20T22:09:19.844Z,8.40
2018-12-20T22:11:48.072Z,8.50
2018-12-20T22:14:16.291Z,8.50
2018-12-20T22:16:44.528Z,8.50
2018-12-20T22:19:12.770Z,8.50
2018-12-20T22:21:40.999Z,8.40
2018-12-20T22:24:09.247Z,8.40
2018-12-20T22:26:37.466Z,8.40
2018-12-20T22:29:05.694Z,8.50
2018-12-20T22:31:33.923Z,8.50
2018-12-20T22:34:02.178Z,8.50
2018-12-20T22:36:30.416Z,8.60
2018-12-20T22:38:58.667Z,8.60
2018-12-20T22:41:26.888Z,8.60
2018-12-20T22:43:55.126Z,8.60
2018-12-20T22:46:23.352Z,8.70
2018-12-20T22:48:51.595Z,8.80
2018-12-20T22:51:19.807Z,8.70
2018-12-20T22:53:48.048Z,8.70
2018-12-20T22:56:16.278Z,8.70
2018-12-20T22:58:44.623Z,8.60
2018-12-20T23:01:12.841Z,8.60
2018-12-20T23:03:41.092Z,8.60
2018-12-20T23:06:09.334Z,8.60
2018-12-20T23:08:37.597Z,8.70
2018-12-20T23:11:05.828Z,8.70
2018-12-20T23:13:34.149Z,8.70
2018-12-20T23:16:02.385Z,8.70
2018-12-20T23:18:30.628Z,8.70
2018-12-20T23:21:04.910Z,8.80
2018-12-20T23:23:29.240Z,8.80
2018-12-20T23:25:57.455Z,8.80
2018-12-20T23:28:25.687Z,8.80
2018-12-20T23:30:53.944Z,8.80
2018-12-20T23:33:22.188Z,8.90
2018-12-20T23:35:50.419Z,8.80
2018-12-20T23:38:18.651Z,8.90
2018-12-20T23:40:46.965Z,8.90
2018-12-20T23:43:15.328Z,8.90
2018-12-20T23:45:43.661Z,8.80
2018-12-20T23:48:12.079Z,8.80
2018-12-20T23:50:40.978Z,8.90
2018-12-20T23:53:09.214Z,8.80
2018-12-20T23:55:37.461Z,8.80
2018-12-20T23:58:05.695Z,8.90
